Time;durP1;ratioP1;P1;durP2;ratioP2;P2;SDS_P1;SDS_P2;PMS_P1;PMS_P2;Temp;Humidity;BMP_temperature;BMP_pressure;BME280_temperature;BME280_humidity;BME280_pressure;Samples;Min_cycle;Max_cycle;Signal;HPM_P1;HPM_P2
2023/12/02 00:00:59;;;;;;;53.40;25.60;;;;;;;8.96;47.57;99284.30;108056;1253;60438;-65
2023/12/02 00:06:42;;;;;;;59.50;26.20;;;;;;;9.13;47.22;99293.05;103510;1262;66779;-65
2023/12/02 00:09:09;;;;;;;71.90;31.50;;;;;;;9.10;47.34;99301.77;107393;1266;73161;-66
2023/12/02 00:11:37;;;;;;;71.20;35.80;;;;;;;9.12;47.26;99304.30;107446;1263;61542;-65
2023/12/02 00:14:05;;;;;;;53.90;29.00;;;;;;;9.14;47.21;99312.27;107430;1263;60336;-66
2023/12/02 00:16:32;;;;;;;54.80;27.80;;;;;;;9.10;47.22;99302.11;107398;1263;72683;-65
2023/12/02 00:18:59;;;;;;;57.00;26.60;;;;;;;9.00;47.28;99304.96;107402;1262;69148;-66
2023/12/02 00:21:27;;;;;;;54.10;23.70;;;;;;;8.91;47.58;99303.80;107379;1265;73101;-65
2023/12/02 00:23:55;;;;;;;52.50;25.50;;;;;;;8.82;47.79;99306.31;107376;1262;60457;-65
2023/12/02 00:26:22;;;;;;;50.10;24.50;;;;;;;8.73;47.93;99308.25;107399;1268;60375;-66
2023/12/02 00:28:55;;;;;;;54.80;25.20;;;;;;;8.73;47.96;99309.47;107425;1263;74193;-65
2023/12/02 00:31:23;;;;;;;54.50;24.70;;;;;;;8.59;48.23;99305.52;107423;1262;69212;-65
2023/12/02 00:33:50;;;;;;;43.10;20.80;;;;;;;8.67;48.08;99299.75;107373;1265;71486;-64
2023/12/02 00:36:18;;;;;;;56.10;25.60;;;;;;;8.75;47.91;99301.88;107386;1263;60377;-63
2023/12/02 00:38:45;;;;;;;58.30;24.80;;;;;;;8.74;47.91;99304.88;107400;1263;60028;-63
2023/12/02 00:41:13;;;;;;;45.90;22.20;;;;;;;8.80;47.92;99309.02;107417;1262;74420;-62
2023/12/02 00:43:41;;;;;;;61.10;27.50;;;;;;;8.83;47.88;99314.12;107413;1261;70254;-62
2023/12/02 00:46:08;;;;;;;65.40;30.70;;;;;;;8.79;48.18;99309.23;107365;1263;72791;-64
2023/12/02 00:48:35;;;;;;;62.50;30.30;;;;;;;8.69;48.37;99310.16;107403;1262;60855;-63
2023/12/02 00:51:04;;;;;;;61.30;27.80;;;;;;;8.81;48.07;99313.50;107355;1268;60365;-63
2023/12/02 00:53:32;;;;;;;56.90;27.50;;;;;;;8.84;47.97;99316.36;107392;1262;73920;-64
2023/12/02 00:55:59;;;;;;;60.40;27.70;;;;;;;8.73;48.11;99317.36;107395;1263;71111;-64
2023/12/02 00:58:26;;;;;;;45.20;22.60;;;;;;;8.69;48.33;99317.00;107408;1264;71483;-65
2023/12/02 01:01:08;;;;;;;55.30;25.70;;;;;;;8.81;47.94;99314.40;107335;1263;61430;-66
2023/12/02 01:03:35;;;;;;;56.30;25.80;;;;;;;8.84;47.80;99311.46;107368;1262;60401;-65
2023/12/02 01:06:03;;;;;;;52.00;24.40;;;;;;;8.87;47.85;99308.37;107274;1265;71783;-63
2023/12/02 01:08:31;;;;;;;61.80;27.00;;;;;;;8.80;47.78;99306.73;107339;1270;70420;-62
2023/12/02 01:10:59;;;;;;;68.30;29.20;;;;;;;8.84;47.85;99304.66;107317;1266;72781;-64
2023/12/02 01:13:26;;;;;;;67.30;31.80;;;;;;;8.85;47.65;99309.30;107308;1266;60845;-63
2023/12/02 01:15:54;;;;;;;72.90;32.20;;;;;;;8.77;47.87;99309.52;107257;1264;61099;-65
2023/12/02 01:18:21;;;;;;;63.20;29.70;;;;;;;8.75;47.87;99310.79;107313;1266;73865;-66
2023/12/02 01:20:49;;;;;;;76.60;33.80;;;;;;;8.83;47.78;99309.94;107294;1266;69643;-66
2023/12/02 01:23:16;;;;;;;67.00;31.90;;;;;;;8.61;48.21;99316.45;107284;1264;72723;-63
2023/12/02 01:25:44;;;;;;;64.50;30.10;;;;;;;8.83;47.85;99313.97;107287;1266;60345;-65
2023/12/02 01:28:11;;;;;;;75.70;32.90;;;;;;;8.89;47.71;99306.51;107321;1264;60356;-65
2023/12/02 01:30:39;;;;;;;75.00;32.10;;;;;;;8.76;47.93;99297.46;107295;1266;73772;-64
2023/12/02 01:33:06;;;;;;;68.60;32.40;;;;;;;8.69;47.88;99304.21;107273;1266;70237;-64
2023/12/02 01:35:34;;;;;;;72.10;33.60;;;;;;;8.45;48.34;99306.96;107338;1264;72742;-62
2023/12/02 01:38:01;;;;;;;76.20;34.00;;;;;;;8.54;48.32;99303.60;107241;1266;61002;-65
2023/12/02 01:40:29;;;;;;;72.30;34.50;;;;;;;8.61;48.13;99295.64;107264;1264;60024;-64
2023/12/02 01:42:56;;;;;;;70.70;32.30;;;;;;;8.64;48.17;99297.95;107314;1266;73483;-65
2023/12/02 01:45:24;;;;;;;72.20;31.80;;;;;;;8.68;47.95;99294.83;107343;1264;70182;-64
2023/12/02 01:47:51;;;;;;;83.20;33.30;;;;;;;8.66;47.89;99291.74;107291;1269;72700;-65
2023/12/02 01:50:19;;;;;;;75.20;33.00;;;;;;;8.58;48.00;99289.78;107292;1265;61076;-67
2023/12/02 01:52:47;;;;;;;79.70;34.30;;;;;;;8.54;48.08;99282.30;107133;1264;212783;-66
2023/12/02 01:57:21;;;;;;;58.80;26.10;;;;;;;4.67;59.19;99300.48;104947;1289;601153;-63
2023/12/02 01:59:53;;;;;;;69.70;33.60;;;;;;;6.32;53.85;99297.72;107296;1264;59919;-64
2023/12/02 02:02:21;;;;;;;74.90;33.80;;;;;;;6.56;53.03;99294.15;107238;1264;60080;-64
2023/12/02 02:04:48;;;;;;;70.50;32.20;;;;;;;6.75;52.58;99294.70;107367;1266;72233;-64
2023/12/02 02:07:17;;;;;;;65.90;30.30;;;;;;;7.03;51.83;99296.35;107626;1257;69498;-63
2023/12/02 02:09:48;;;;;;;59.00;27.10;;;;;;;7.04;51.67;99291.40;107607;1262;71953;-64
2023/12/02 02:12:16;;;;;;;57.50;27.10;;;;;;;7.04;51.57;99284.26;107380;1255;60351;-65
2023/12/02 02:14:44;;;;;;;51.10;25.00;;;;;;;6.97;51.57;99286.59;108208;1251;59086;-64
2023/12/02 02:17:12;;;;;;;61.60;28.70;;;;;;;7.08;51.45;99290.22;108237;1251;72297;-63
2023/12/02 02:19:39;;;;;;;67.90;30.20;;;;;;;7.16;51.09;99304.25;108180;1251;70371;-60
2023/12/02 02:22:07;;;;;;;55.00;26.70;;;;;;;7.22;50.91;99307.69;108168;1256;71841;-68
2023/12/02 02:24:35;;;;;;;69.10;30.00;;;;;;;7.16;50.82;99306.52;108188;1251;60820;-65
2023/12/02 02:27:04;;;;;;;76.70;33.60;;;;;;;7.29;50.62;99299.07;108208;1256;59977;-62
2023/12/02 02:29:32;;;;;;;80.90;34.30;;;;;;;7.19;50.61;99292.61;108260;1252;73089;-62
2023/12/02 02:31:59;;;;;;;83.10;35.50;;;;;;;7.25;50.33;99300.09;108219;1251;70122;-64
2023/12/02 02:34:27;;;;;;;83.30;34.80;;;;;;;7.41;49.95;99293.73;108197;1252;72432;-64
2023/12/02 02:36:55;;;;;;;79.40;34.90;;;;;;;7.54;49.87;99288.35;108223;1251;60811;-64
2023/12/02 02:39:23;;;;;;;86.60;36.80;;;;;;;7.54;49.90;99298.47;108228;1251;60153;-62
2023/12/02 02:41:51;;;;;;;85.80;37.10;;;;;;;7.64;49.55;99299.48;108217;1251;72184;-65
2023/12/02 02:44:18;;;;;;;104.00;44.40;;;;;;;7.71;49.49;99300.80;108169;1251;70146;-65
2023/12/02 02:46:45;;;;;;;106.00;44.70;;;;;;;7.57;49.96;99299.92;108192;1251;72649;-65
2023/12/02 02:49:13;;;;;;;107.20;44.60;;;;;;;7.38;50.34;99301.69;108178;1256;59697;-65
2023/12/02 02:51:40;;;;;;;131.30;56.60;;;;;;;7.52;50.22;99301.89;108210;1251;59602;-66
2023/12/02 02:54:08;;;;;;;114.20;49.40;;;;;;;7.40;50.37;99308.09;108340;1251;72991;-66
2023/12/02 02:56:36;;;;;;;93.50;40.70;;;;;;;7.43;50.43;99312.02;108234;1257;68493;-65
2023/12/02 02:59:03;;;;;;;84.30;36.80;;;;;;;7.28;50.57;99311.83;108180;1251;71693;-65
2023/12/02 03:01:31;;;;;;;102.20;40.70;;;;;;;7.37;50.68;99317.08;108203;1251;60823;-61
2023/12/02 03:03:58;;;;;;;172.40;65.40;;;;;;;7.54;50.25;99316.11;108213;1251;59409;-64
2023/12/02 03:06:26;;;;;;;144.00;55.40;;;;;;;7.42;50.51;99318.30;108197;1257;71807;-65
2023/12/02 03:08:54;;;;;;;110.80;45.90;;;;;;;7.30;50.59;99322.04;108123;1257;68946;-62
2023/12/02 03:11:22;;;;;;;85.80;38.40;;;;;;;7.31;50.53;99324.48;108115;1251;71364;-64
2023/12/02 03:13:49;;;;;;;88.70;40.00;;;;;;;7.36;50.28;99329.17;108093;1257;59819;-65
2023/12/02 03:16:17;;;;;;;77.60;35.40;;;;;;;7.40;50.30;99326.06;108132;1251;59701;-65
2023/12/02 03:18:44;;;;;;;77.30;33.20;;;;;;;7.35;50.19;99324.85;108176;1251;71726;-65
2023/12/02 03:21:12;;;;;;;90.20;37.60;;;;;;;7.31;50.25;99329.55;108122;1251;70091;-64
2023/12/02 03:23:40;;;;;;;120.80;44.30;;;;;;;7.33;50.27;99338.73;108174;1251;72075;-64
2023/12/02 03:26:07;;;;;;;84.20;36.80;;;;;;;7.42;50.17;99335.79;108145;1256;61105;-64
2023/12/02 03:28:35;;;;;;;75.00;32.20;;;;;;;7.34;50.28;99334.84;108151;1251;59673;-66
2023/12/02 03:31:02;;;;;;;90.90;36.30;;;;;;;7.41;50.19;99339.49;108170;1257;73269;-64
2023/12/02 03:33:30;;;;;;;98.90;37.00;;;;;;;7.31;50.39;99332.52;108275;1251;69928;-66
2023/12/02 03:35:58;;;;;;;127.70;46.10;;;;;;;7.18;50.63;99328.42;108087;1254;70728;-65
2023/12/02 03:38:25;;;;;;;86.80;37.60;;;;;;;7.15;50.57;99324.01;108062;1254;60022;-66
2023/12/02 03:40:53;;;;;;;72.50;32.70;;;;;;;7.23;50.56;99322.34;108083;1257;59494;-64
2023/12/02 03:43:20;;;;;;;79.20;35.00;;;;;;;7.30;50.32;99325.39;108130;1251;71986;-64
2023/12/02 03:45:48;;;;;;;367.20;142.70;;;;;;;7.26;50.24;99331.64;108199;1251;69874;-65
2023/12/02 03:48:15;;;;;;;145.10;58.30;;;;;;;7.19;50.33;99338.52;108092;1254;71402;-64
2023/12/02 03:50:43;;;;;;;157.10;51.70;;;;;;;7.08;50.83;99335.59;108116;1251;60912;-65
2023/12/02 03:53:10;;;;;;;121.00;41.30;;;;;;;7.06;50.97;99341.98;108025;1251;59983;-65
2023/12/02 03:55:38;;;;;;;70.80;30.50;;;;;;;7.19;50.65;99344.64;108181;1251;71730;-63
2023/12/02 03:58:06;;;;;;;77.70;33.00;;;;;;;7.04;50.95;99347.11;108121;1257;71019;-64
2023/12/02 04:00:33;;;;;;;70.40;31.90;;;;;;;6.98;51.09;99354.65;108118;1253;72465;-64
2023/12/02 04:03:01;;;;;;;97.40;37.30;;;;;;;7.04;51.14;99350.41;108084;1254;60092;-65
2023/12/02 04:05:29;;;;;;;88.70;34.30;;;;;;;7.12;50.89;99344.39;108121;1251;60016;-65
2023/12/02 04:07:56;;;;;;;79.20;32.30;;;;;;;7.36;50.41;99345.07;108183;1256;73554;-66
2023/12/02 04:10:24;;;;;;;65.00;29.40;;;;;;;7.37;50.33;99343.48;108143;1251;68910;-65
2023/12/02 04:12:51;;;;;;;70.80;31.30;;;;;;;7.40;50.33;99341.61;108073;1254;73003;-65
2023/12/02 04:15:19;;;;;;;338.30;152.60;;;;;;;7.36;50.24;99331.48;108071;1251;60831;-64
2023/12/02 04:17:47;;;;;;;114.50;51.60;;;;;;;7.34;50.14;99326.09;108092;1251;60573;-65
2023/12/02 04:20:15;;;;;;;75.20;35.30;;;;;;;7.42;50.24;99331.76;108106;1251;72971;-65
2023/12/02 04:22:43;;;;;;;62.70;28.90;;;;;;;7.40;50.09;99332.38;108135;1251;72770;-66
2023/12/02 04:25:11;;;;;;;60.20;28.30;;;;;;;7.40;50.15;99336.37;108169;1251;71150;-64
2023/12/02 04:27:38;;;;;;;73.20;29.20;;;;;;;7.36;50.02;99337.38;108144;1251;60878;-62
2023/12/02 04:30:08;;;;;;;60.10;26.50;;;;;;;7.15;50.38;99336.95;108171;1251;59519;-60
2023/12/02 04:32:36;;;;;;;88.50;34.20;;;;;;;7.13;50.56;99331.04;108208;1251;72911;-66
2023/12/02 04:35:05;;;;;;;67.10;28.30;;;;;;;7.05;50.63;99331.18;108201;1257;68527;-65
2023/12/02 04:37:33;;;;;;;61.80;28.10;;;;;;;6.99;50.70;99340.11;108234;1257;72445;-65
2023/12/02 04:40:01;;;;;;;69.10;29.40;;;;;;;7.01;50.62;99338.13;108174;1253;59631;-65
2023/12/02 04:42:28;;;;;;;59.80;25.10;;;;;;;6.90;50.71;99331.69;108156;1251;59637;-65
2023/12/02 04:44:55;;;;;;;60.60;27.70;;;;;;;7.14;50.43;99333.31;108144;1251;71731;-64
2023/12/02 04:47:23;;;;;;;63.00;27.60;;;;;;;7.06;50.42;99339.88;108200;1251;68706;-66
2023/12/02 04:49:51;;;;;;;60.20;26.90;;;;;;;6.97;50.79;99337.03;108116;1257;72634;-65
2023/12/02 04:52:18;;;;;;;63.80;28.80;;;;;;;7.10;50.34;99340.07;108084;1251;60895;-64
2023/12/02 04:54:45;;;;;;;56.70;27.10;;;;;;;7.12;50.28;99348.19;108091;1251;60067;-64
2023/12/02 04:57:13;;;;;;;77.90;32.10;;;;;;;7.28;50.00;99354.45;108194;1251;72126;-65
2023/12/02 04:59:40;;;;;;;96.50;34.60;;;;;;;7.36;49.89;99361.33;108160;1251;70284;-66
2023/12/02 05:02:08;;;;;;;85.70;31.40;;;;;;;7.32;50.02;99355.69;108062;1254;71935;-67
2023/12/02 05:04:36;;;;;;;70.10;29.30;;;;;;;7.23;50.12;99359.67;108097;1254;59649;-66
2023/12/02 05:07:03;;;;;;;76.10;31.00;;;;;;;7.29;49.89;99366.29;108036;1254;59433;-64
2023/12/02 05:09:31;;;;;;;70.70;29.60;;;;;;;7.37;49.79;99363.03;108169;1253;71732;-64
2023/12/02 05:11:59;;;;;;;73.40;30.50;;;;;;;7.40;49.76;99358.93;108059;1254;68904;-65
2023/12/02 05:14:27;;;;;;;93.80;36.90;;;;;;;7.45;49.40;99354.72;108055;1254;71389;-65
2023/12/02 05:16:54;;;;;;;95.80;38.70;;;;;;;7.44;49.58;99354.94;108024;1254;60785;-65
2023/12/02 05:19:22;;;;;;;80.50;33.90;;;;;;;7.30;49.73;99352.27;108059;1252;61241;-63
2023/12/02 05:21:50;;;;;;;76.70;34.20;;;;;;;7.25;49.88;99355.94;108113;1254;71702;-66
2023/12/02 05:24:20;;;;;;;74.00;30.40;;;;;;;7.24;50.02;99361.73;108040;1254;68529;-66
2023/12/02 05:26:48;;;;;;;;;;;;;;;7.30;49.92;99370.09;108060;1254;70814;-66
2023/12/02 05:29:15;;;;;;;71.10;29.00;;;;;;;7.37;49.60;99371.06;108048;1252;60097;-66
2023/12/02 05:31:43;;;;;;;76.00;31.80;;;;;;;7.26;49.64;99374.41;108099;1253;59965;-66
2023/12/02 05:34:10;;;;;;;73.60;31.40;;;;;;;7.36;49.65;99377.57;108109;1254;70954;-64
2023/12/02 05:36:38;;;;;;;76.40;33.60;;;;;;;7.43;49.56;99376.96;108184;1254;68709;-66
2023/12/02 05:39:05;;;;;;;84.50;33.50;;;;;;;7.38;49.56;99379.06;108124;1254;72526;-64
2023/12/02 05:41:33;;;;;;;82.00;32.90;;;;;;;7.40;49.80;99377.23;108042;1254;60820;-66
2023/12/02 05:44:00;;;;;;;69.60;29.20;;;;;;;7.21;50.25;99376.16;108087;1253;60091;-65
2023/12/02 05:46:28;;;;;;;76.60;32.90;;;;;;;7.12;50.27;99376.98;108039;1253;73000;-64
2023/12/02 05:48:55;;;;;;;69.20;30.90;;;;;;;7.11;50.33;99372.14;108148;1254;69961;-64
2023/12/02 05:51:23;;;;;;;80.70;34.10;;;;;;;6.96;50.57;99371.08;108035;1254;70632;-64
2023/12/02 05:53:51;;;;;;;78.60;30.70;;;;;;;7.01;50.77;99372.15;108115;1254;59621;-65
2023/12/02 05:56:21;;;;;;;88.00;35.60;;;;;;;6.93;50.58;99378.55;108097;1254;59485;-63
2023/12/02 05:58:49;;;;;;;70.40;31.40;;;;;;;7.01;50.66;99384.20;108090;1252;72247;-65
2023/12/02 06:01:21;;;;;;;90.30;37.60;;;;;;;7.29;50.26;99378.33;108153;1251;69990;-65
2023/12/02 06:03:49;;;;;;;88.10;36.20;;;;;;;7.54;49.85;99375.35;108099;1254;70082;-69
2023/12/02 06:06:17;;;;;;;79.60;33.30;;;;;;;7.43;49.95;99382.02;108177;1254;60778;-66
2023/12/02 06:08:45;;;;;;;105.60;35.70;;;;;;;7.39;50.08;99382.35;108211;1251;59236;-66
2023/12/02 06:11:12;;;;;;;78.60;32.20;;;;;;;7.36;50.25;99368.99;108084;1251;73833;-65
2023/12/02 06:13:40;;;;;;;70.30;31.40;;;;;;;7.40;50.29;99362.77;108091;1251;70096;-66
2023/12/02 06:16:09;;;;;;;65.60;30.50;;;;;;;7.45;50.13;99366.58;108131;1251;72601;-66
2023/12/02 06:18:36;;;;;;;78.20;30.90;;;;;;;7.53;49.80;99360.86;108149;1252;61305;-66
2023/12/02 06:21:05;;;;;;;58.30;26.30;;;;;;;7.60;49.82;99344.19;108174;1251;60168;-66
2023/12/02 06:23:32;;;;;;;65.90;29.10;;;;;;;7.58;49.70;99343.92;108162;1251;73789;-65
2023/12/02 06:26:00;;;;;;;279.50;98.00;;;;;;;7.57;49.73;99348.50;108077;1251;70081;-65
2023/12/02 06:28:27;;;;;;;308.20;116.10;;;;;;;7.66;49.67;99360.23;108040;1251;71983;-65
2023/12/02 06:30:57;;;;;;;105.00;42.90;;;;;;;7.70;49.61;99362.33;108132;1251;61103;-67
2023/12/02 06:33:25;;;;;;;92.00;38.70;;;;;;;7.73;49.58;99363.42;108039;1253;60281;-65
2023/12/02 06:35:52;;;;;;;84.30;34.90;;;;;;;7.63;49.85;99364.70;108055;1251;72375;-66
2023/12/02 06:38:20;;;;;;;71.90;29.60;;;;;;;7.61;49.70;99369.69;108196;1251;69017;-65
2023/12/02 06:40:47;;;;;;;75.80;31.50;;;;;;;7.68;49.58;99381.96;108025;1253;71469;-65
2023/12/02 06:43:15;;;;;;;78.00;32.20;;;;;;;7.69;49.62;99387.19;108074;1253;60428;-65
2023/12/02 06:45:42;;;;;;;69.90;29.70;;;;;;;7.79;49.30;99386.31;108198;1251;60309;-63
2023/12/02 06:48:10;;;;;;;82.90;34.00;;;;;;;7.92;49.03;99376.70;108203;1251;73779;-66
2023/12/02 06:50:38;;;;;;;76.10;32.10;;;;;;;8.00;49.01;99365.23;108158;1251;69245;-66
2023/12/02 06:53:05;;;;;;;69.60;31.70;;;;;;;8.07;48.65;99367.04;108067;1251;72665;-64
2023/12/02 06:55:33;;;;;;;64.40;28.30;;;;;;;7.97;48.76;99376.16;108096;1251;60895;-65
2023/12/02 06:58:00;;;;;;;60.10;25.90;;;;;;;7.84;48.61;99375.45;108091;1251;60322;-63
2023/12/02 07:00:28;;;;;;;76.20;30.00;;;;;;;7.73;48.88;99378.14;108105;1251;73785;-63
2023/12/02 07:02:56;;;;;;;67.80;30.50;;;;;;;7.77;48.62;99379.38;108141;1251;70393;-64
2023/12/02 07:05:23;;;;;;;66.00;28.70;;;;;;;6.92;50.34;99380.95;108089;1253;72425;-64
2023/12/02 07:07:51;;;;;;;66.80;29.10;;;;;;;6.05;52.77;99376.46;108124;1251;60303;-65
2023/12/02 07:10:18;;;;;;;63.30;27.50;;;;;;;5.96;53.17;99377.62;108119;1251;60325;-66
2023/12/02 07:12:46;;;;;;;62.00;26.50;;;;;;;5.98;53.28;99378.09;108099;1251;74296;-66
2023/12/02 07:15:13;;;;;;;65.60;29.40;;;;;;;5.94;53.41;99383.61;108149;1251;68274;-66
2023/12/02 07:17:41;;;;;;;59.00;25.10;;;;;;;5.94;53.15;99382.36;108123;1251;72657;-66
2023/12/02 07:20:09;;;;;;;57.80;22.30;;;;;;;5.89;53.67;99381.14;108133;1254;61438;-66
2023/12/02 07:22:37;;;;;;;68.40;26.80;;;;;;;5.67;54.12;99388.90;108204;1251;60275;-67
2023/12/02 07:25:05;;;;;;;67.40;27.20;;;;;;;5.76;53.82;99394.92;108138;1251;74052;-65
2023/12/02 07:27:33;;;;;;;58.00;23.20;;;;;;;5.86;53.57;99397.23;108219;1251;69354;-67
2023/12/02 07:30:00;;;;;;;73.00;29.10;;;;;;;5.84;53.89;99396.40;108155;1256;71380;-66
2023/12/02 07:32:31;;;;;;;66.20;25.50;;;;;;;5.84;54.28;99394.52;108171;1251;60303;-66
2023/12/02 07:34:58;;;;;;;77.30;28.30;;;;;;;5.87;53.88;99386.77;108181;1251;60220;-67
2023/12/02 07:37:26;;;;;;;64.20;24.20;;;;;;;5.76;54.14;99388.82;108158;1251;73889;-67
2023/12/02 07:39:53;;;;;;;66.00;25.10;;;;;;;6.28;53.47;99380.13;108067;1251;69927;-66
2023/12/02 07:42:21;;;;;;;61.60;25.50;;;;;;;6.67;52.29;99374.52;108079;1251;71272;-66
2023/12/02 07:44:48;;;;;;;71.50;27.90;;;;;;;6.71;52.11;99374.04;108078;1251;60466;-66
2023/12/02 07:47:16;;;;;;;65.80;25.30;;;;;;;6.65;52.30;99375.47;108067;1251;60322;-66
2023/12/02 07:49:43;;;;;;;65.20;25.60;;;;;;;6.32;52.79;99378.95;108085;1256;72651;-66
2023/12/02 07:52:11;;;;;;;62.80;25.40;;;;;;;6.48;52.45;99378.98;108109;1251;69189;-66
2023/12/02 07:54:38;;;;;;;65.90;25.80;;;;;;;6.90;51.73;99379.69;108085;1256;71439;-67
2023/12/02 07:57:06;;;;;;;58.20;25.30;;;;;;;6.61;52.10;99380.09;108071;1251;61506;-65
2023/12/02 07:59:33;;;;;;;64.80;27.40;;;;;;;6.68;52.27;99375.52;108136;1251;59471;-65
2023/12/02 08:02:01;;;;;;;66.20;27.40;;;;;;;6.70;52.20;99380.00;108080;1251;72983;-66
2023/12/02 08:04:28;;;;;;;63.10;25.80;;;;;;;7.08;51.31;99377.67;108161;1257;68835;-66
2023/12/02 08:06:56;;;;;;;64.20;26.10;;;;;;;7.06;51.25;99377.77;108068;1251;72852;-65
2023/12/02 08:09:23;;;;;;;71.60;29.00;;;;;;;7.07;51.25;99374.04;108154;1254;60264;-66
2023/12/02 08:11:51;;;;;;;78.20;30.50;;;;;;;7.15;51.06;99374.11;108203;1251;60438;-66
2023/12/02 08:14:19;;;;;;;63.90;26.40;;;;;;;7.20;50.85;99371.83;108150;1256;73818;-65
2023/12/02 08:16:46;;;;;;;74.80;28.10;;;;;;;7.21;50.85;99369.70;108166;1251;68855;-65
2023/12/02 08:19:16;;;;;;;71.50;27.90;;;;;;;7.24;50.60;99372.21;108169;1253;72052;-66
2023/12/02 08:21:46;;;;;;;64.10;26.30;;;;;;;7.28;50.61;99373.80;108074;1254;60310;-65
2023/12/02 08:24:15;;;;;;;61.10;26.00;;;;;;;7.29;50.74;99375.36;108197;1251;60351;-66
2023/12/02 08:26:43;;;;;;;62.40;25.20;;;;;;;7.45;50.28;99367.80;108265;1251;72590;-66
2023/12/02 08:29:10;;;;;;;57.90;23.20;;;;;;;7.61;49.86;99371.23;108272;1251;70007;-65
2023/12/02 08:31:38;;;;;;;52.80;23.30;;;;;;;7.58;49.99;99373.96;108249;1251;72662;-66
2023/12/02 08:34:05;;;;;;;56.40;25.50;;;;;;;7.60;49.98;99375.46;108218;1251;61692;-66
2023/12/02 08:36:42;;;;;;;56.60;25.00;;;;;;;7.75;49.80;99379.09;108282;1251;60268;-66
2023/12/02 08:39:10;;;;;;;61.80;26.80;;;;;;;7.84;49.54;99380.17;108148;1251;72565;-65
2023/12/02 08:41:37;;;;;;;51.20;23.10;;;;;;;7.84;49.47;99377.70;108253;1251;69216;-66
2023/12/02 08:44:05;;;;;;;69.10;30.40;;;;;;;7.85;49.34;99376.81;108233;1251;70171;-66
2023/12/02 08:46:32;;;;;;;85.10;37.30;;;;;;;7.77;49.31;99374.84;108115;1251;60907;-66
2023/12/02 08:49:00;;;;;;;72.40;30.00;;;;;;;7.64;49.84;99373.02;108239;1251;60190;-68
2023/12/02 08:51:28;;;;;;;77.00;28.80;;;;;;;7.64;49.68;99377.95;108231;1251;73120;-66
2023/12/02 08:53:59;;;;;;;62.90;27.50;;;;;;;7.65;49.79;99378.59;108172;1251;70145;-66
2023/12/02 08:56:27;;;;;;;64.60;28.80;;;;;;;7.64;49.60;99383.36;108229;1253;72617;-66
2023/12/02 08:58:55;;;;;;;61.50;27.10;;;;;;;7.72;49.36;99386.20;108220;1251;60493;-64
2023/12/02 09:01:23;;;;;;;63.90;27.70;;;;;;;7.76;49.30;99386.59;108232;1250;60360;-66
2023/12/02 09:03:50;;;;;;;65.50;27.80;;;;;;;7.44;49.82;99384.42;108350;1250;73845;-66
2023/12/02 09:06:18;;;;;;;57.30;27.60;;;;;;;7.44;49.97;99383.21;108252;1250;70582;-66
2023/12/02 09:08:45;;;;;;;63.80;27.60;;;;;;;7.53;49.66;99394.42;108212;1250;72731;-64
2023/12/02 09:11:13;;;;;;;63.40;28.00;;;;;;;7.42;50.00;99398.84;108088;1250;60465;-65
2023/12/02 09:13:47;;;;;;;59.60;26.00;;;;;;;7.35;50.36;99403.96;108209;1250;60507;-63
2023/12/02 09:16:19;;;;;;;68.20;29.30;;;;;;;7.40;50.32;99405.73;108233;1250;73900;-66
2023/12/02 09:18:47;;;;;;;59.80;26.50;;;;;;;7.24;50.47;99404.16;108228;1250;70421;-64
2023/12/02 09:21:21;;;;;;;63.60;26.70;;;;;;;7.22;50.61;99400.58;108297;1251;72627;-66
2023/12/02 09:23:49;;;;;;;61.80;27.40;;;;;;;7.12;50.79;99407.55;108249;1252;60041;-66
2023/12/02 09:26:25;;;;;;;50.70;23.70;;;;;;;7.09;50.93;99413.58;108292;1250;59928;-66
2023/12/02 09:28:54;;;;;;;76.00;34.80;;;;;;;7.22;50.55;99409.14;108214;1250;73036;-66
2023/12/02 09:31:22;;;;;;;67.80;29.70;;;;;;;7.40;50.23;99403.77;108250;1250;70772;-66
2023/12/02 09:33:58;;;;;;;70.30;29.70;;;;;;;7.39;50.53;99395.61;108270;1250;72691;-67
2023/12/02 09:36:34;;;;;;;58.40;26.30;;;;;;;7.44;50.10;99388.96;108199;1250;61075;-64
2023/12/02 09:39:15;;;;;;;70.60;29.80;;;;;;;7.36;50.09;99390.63;108252;1250;60363;-64
2023/12/02 09:41:50;;;;;;;61.30;28.40;;;;;;;7.42;49.91;99385.04;108229;1250;72621;-65
2023/12/02 09:44:28;;;;;;;67.30;29.80;;;;;;;7.44;49.92;99373.44;108334;1250;69051;-66
2023/12/02 09:47:21;;;;;;;74.70;29.50;;;;;;;7.45;49.84;99362.94;108253;1251;72436;-64
2023/12/02 09:50:09;;;;;;;70.60;28.60;;;;;;;7.51;49.74;99356.42;108211;1252;61066;-64
2023/12/02 09:53:09;;;;;;;71.80;30.80;;;;;;;7.41;49.93;99354.69;108201;1250;60345;-64
2023/12/02 09:55:43;;;;;;;79.50;30.80;;;;;;;7.40;49.99;99356.65;108264;1250;72751;-65
2023/12/02 09:58:24;;;;;;;76.00;30.80;;;;;;;7.40;49.94;99368.52;108221;1250;68905;-64
2023/12/02 10:01:00;;;;;;;69.70;29.80;;;;;;;7.37;50.05;99347.84;108194;1250;72214;-66
2023/12/02 10:03:30;;;;;;;73.10;29.30;;;;;;;7.36;50.02;99347.35;108166;1250;60867;-66
2023/12/02 10:06:20;;;;;;;72.30;30.00;;;;;;;7.30;50.33;99354.19;108137;1250;60345;-65
2023/12/02 10:09:00;;;;;;;69.20;30.40;;;;;;;7.24;50.75;99361.39;108276;1250;73929;-65
2023/12/02 10:11:44;;;;;;;79.60;32.40;;;;;;;7.26;50.61;99352.96;108210;1256;69036;-66
2023/12/02 10:14:11;;;;;;;70.10;26.40;;;;;;;7.14;50.78;99339.75;108253;1250;72424;-66
2023/12/02 10:16:41;;;;;;;80.70;33.60;;;;;;;7.17;50.86;99332.30;108227;1250;61324;-65
2023/12/02 10:19:16;;;;;;;80.10;32.10;;;;;;;7.19;50.82;99332.77;108266;1250;61223;-66
2023/12/02 10:21:45;;;;;;;77.60;30.00;;;;;;;7.11;50.97;99330.63;108275;1252;73881;-65
2023/12/02 10:24:12;;;;;;;83.40;34.40;;;;;;;7.04;51.21;99326.33;108209;1256;68899;-66
2023/12/02 10:26:49;;;;;;;78.10;31.90;;;;;;;7.11;51.23;99323.65;108192;1250;71443;-66
2023/12/02 10:29:35;;;;;;;79.30;32.10;;;;;;;7.02;51.27;99319.42;108290;1256;60838;-66
2023/12/02 10:32:36;;;;;;;78.60;33.40;;;;;;;7.12;51.00;99315.90;108193;1250;59633;-67
2023/12/02 10:35:10;;;;;;;86.60;37.00;;;;;;;7.18;51.29;99313.25;108095;1250;73925;-65
2023/12/02 10:37:39;;;;;;;73.60;29.90;;;;;;;6.96;51.49;99316.66;108233;1251;70175;-65
2023/12/02 10:40:09;;;;;;;96.70;38.60;;;;;;;7.07;51.64;99333.73;108112;1250;73415;-66
2023/12/02 10:42:57;;;;;;;86.70;34.00;;;;;;;7.13;51.41;99336.48;108228;1250;60412;-66
2023/12/02 10:45:25;;;;;;;77.40;33.10;;;;;;;7.14;51.40;99334.86;108216;1250;59932;-66
2023/12/02 10:47:53;;;;;;;96.90;37.90;;;;;;;6.99;51.85;99334.86;108265;1251;73245;-66
2023/12/02 10:50:21;;;;;;;93.70;37.70;;;;;;;7.08;51.53;99323.90;108188;1250;69176;-66
2023/12/02 10:53:05;;;;;;;87.40;36.80;;;;;;;6.93;52.04;99316.56;108045;1252;72808;-65
2023/12/02 10:55:35;;;;;;;102.20;38.90;;;;;;;6.88;52.16;99311.88;108205;1252;60900;-65
2023/12/02 10:58:04;;;;;;;96.80;40.10;;;;;;;6.93;51.98;99307.16;108170;1250;60391;-65
2023/12/02 11:00:35;;;;;;;80.70;32.90;;;;;;;6.92;52.05;99308.23;108247;1251;73840;-66
2023/12/02 11:03:06;;;;;;;72.80;30.20;;;;;;;6.97;51.71;99308.93;108176;1251;69980;-66
2023/12/02 11:05:53;;;;;;;75.90;33.40;;;;;;;6.86;51.78;99319.95;108163;1251;71378;-66
2023/12/02 11:08:27;;;;;;;89.90;37.60;;;;;;;6.91;51.58;99317.69;108151;1253;60169;-65
2023/12/02 11:10:55;;;;;;;83.60;34.90;;;;;;;7.16;51.40;99319.60;108088;1251;59642;-67
2023/12/02 11:13:26;;;;;;;79.50;35.30;;;;;;;7.16;51.37;99323.80;108222;1251;73831;-66
2023/12/02 11:16:14;;;;;;;74.90;33.10;;;;;;;7.13;51.49;99330.20;108076;1251;70167;-65
2023/12/02 11:18:51;;;;;;;67.90;29.10;;;;;;;7.10;51.36;99326.98;108151;1251;71346;-66
2023/12/02 11:21:30;;;;;;;59.90;28.10;;;;;;;7.02;51.41;99324.46;108138;1253;60352;-65
2023/12/02 11:24:14;;;;;;;77.60;32.00;;;;;;;7.10;51.05;99316.34;108118;1257;60358;-67
2023/12/02 11:26:48;;;;;;;67.80;30.70;;;;;;;7.10;51.31;99313.02;108141;1257;76122;-66
2023/12/02 11:29:29;;;;;;;63.70;28.60;;;;;;;7.19;51.19;99312.33;108121;1251;70618;-66
2023/12/02 11:32:10;;;;;;;65.20;28.00;;;;;;;7.31;50.73;99315.41;108131;1253;70234;-66